Time;durP1;ratioP1;P1;durP2;ratioP2;P2;SDS_P1;SDS_P2;PMS_P1;PMS_P2;Temp;Humidity;BMP_temperature;BMP_pressure;BME280_temperature;BME280_humidity;BME280_pressure;Samples;Min_cycle;Max_cycle;Signal;HPM_P1;HPM_P2
2024/02/16 00:01:02;;;;;;;10.00;3.88;;;;;;;-6.58;68.60;101098.19;4967583;28;20034;-51
2024/02/16 00:03:29;;;;;;;15.25;5.65;;;;;;;-6.39;68.70;101132.13;4986166;28;20514;-53
2024/02/16 00:05:55;;;;;;;16.35;6.13;;;;;;;-6.42;68.90;101127.75;4986588;28;20084;-49
2024/02/16 00:08:21;;;;;;;10.48;4.32;;;;;;;-6.68;68.99;101093.41;5003945;28;20075;-51
2024/02/16 00:10:47;;;;;;;16.75;5.13;;;;;;;-6.64;68.92;101134.91;5004587;28;20037;-51
2024/02/16 00:13:14;;;;;;;12.07;5.28;;;;;;;-6.67;69.32;101127.16;4989444;28;20041;-55
2024/02/16 00:15:39;;;;;;;16.55;4.75;;;;;;;-6.47;69.47;101124.97;5006670;28;20080;-49
2024/02/16 00:18:06;;;;;;;14.65;4.88;;;;;;;-6.47;69.35;101097.16;5006738;28;20425;-50
2024/02/16 00:20:32;;;;;;;13.80;5.35;;;;;;;-6.37;69.15;101128.91;5003632;28;20073;-51
2024/02/16 00:22:58;;;;;;;20.20;6.07;;;;;;;-6.69;69.30;101078.16;4956774;28;20522;-52
2024/02/16 00:25:23;;;;;;;17.20;6.35;;;;;;;-6.33;69.86;101135.88;4999395;28;20046;-52
2024/02/16 00:27:52;;;;;;;17.58;5.88;;;;;;;-6.30;69.24;101120.00;5005099;28;20104;-53
2024/02/16 00:30:22;;;;;;;14.02;6.07;;;;;;;-6.42;69.33;101120.19;5005893;28;20042;-51
2024/02/16 00:32:48;;;;;;;12.15;5.15;;;;;;;-6.35;69.14;101114.69;5006452;28;20054;-54
2024/02/16 00:35:17;;;;;;;13.35;5.40;;;;;;;-6.37;69.15;101120.44;5006102;28;20045;-52
2024/02/16 00:37:45;;;;;;;15.27;6.53;;;;;;;-6.36;69.52;101112.94;4960798;28;20045;-51
2024/02/16 00:40:12;;;;;;;13.93;5.15;;;;;;;-6.27;69.37;101122.69;4976735;28;20081;-53
2024/02/16 00:42:38;;;;;;;11.77;5.43;;;;;;;-6.32;68.86;101113.97;4985979;28;20120;-52
2024/02/16 00:45:05;;;;;;;12.15;4.85;;;;;;;-6.57;69.25;101074.66;4986896;28;20053;-53
2024/02/16 00:47:30;;;;;;;17.08;5.82;;;;;;;-6.45;69.17;101079.53;5002621;28;20037;-50
2024/02/16 00:49:58;;;;;;;22.40;5.50;;;;;;;-6.43;68.74;101114.25;4988857;28;20036;-51
2024/02/16 00:52:24;;;;;;;12.02;5.55;;;;;;;-6.72;69.13;101076.34;5005283;28;20045;-52
2024/02/16 00:54:51;;;;;;;13.00;5.03;;;;;;;-6.53;69.08;101118.69;5006625;28;20542;-51
2024/02/16 00:57:17;;;;;;;12.10;5.25;;;;;;;-6.65;69.13;101123.09;5005138;28;20107;-49
2024/02/16 00:59:43;;;;;;;12.18;5.28;;;;;;;-6.66;69.34;101126.38;5005038;28;20041;-48
2024/02/16 01:02:11;;;;;;;11.85;4.75;;;;;;;-6.79;69.23;101113.81;5006454;28;20096;-50
2024/02/16 01:04:37;;;;;;;13.35;5.13;;;;;;;-7.21;69.73;101049.88;5005802;28;20045;-53
2024/02/16 01:07:03;;;;;;;13.00;5.60;;;;;;;-6.63;69.57;101111.38;5006119;28;20053;-50
2024/02/16 01:09:28;;;;;;;14.93;5.80;;;;;;;-6.47;69.89;101109.81;5005034;28;20541;-56
2024/02/16 01:11:55;;;;;;;15.38;5.30;;;;;;;-6.37;69.65;101112.84;4985091;28;20049;-55
2024/02/16 01:14:20;;;;;;;12.30;5.60;;;;;;;-6.34;69.40;101115.56;4986855;28;20058;-52
2024/02/16 01:16:46;;;;;;;17.92;6.20;;;;;;;-6.41;69.49;101076.38;4994278;28;20046;-49
2024/02/16 01:19:12;;;;;;;18.35;5.45;;;;;;;-5.99;69.83;101118.38;5005506;28;20544;-54
2024/02/16 01:21:38;;;;;;;10.65;4.03;;;;;;;-5.84;69.35;101129.28;5009603;28;20034;-51
2024/02/16 01:24:05;;;;;;;13.30;5.28;;;;;;;-5.84;68.88;101115.75;5008664;28;20048;-54
2024/02/16 01:26:32;;;;;;;16.73;5.95;;;;;;;-6.04;68.61;101114.72;5008774;28;20068;-51
2024/02/16 01:28:58;;;;;;;25.13;6.97;;;;;;;-6.08;68.99;101115.34;4956314;28;20046;-50
2024/02/16 01:31:24;;;;;;;13.90;4.97;;;;;;;-6.22;68.81;101114.56;4993882;28;20041;-50
2024/02/16 01:33:50;;;;;;;14.90;5.57;;;;;;;-6.35;68.97;101107.09;4994154;28;20056;-52
2024/02/16 01:36:16;;;;;;;12.38;5.47;;;;;;;-6.27;68.97;101102.44;5009693;28;20041;-48
2024/02/16 01:38:42;;;;;;;11.48;5.30;;;;;;;-6.43;69.43;101061.13;5009938;28;20867;-52
2024/02/16 01:41:08;;;;;;;8.93;4.07;;;;;;;-6.17;69.22;101097.09;5007505;28;20041;-53
2024/02/16 01:43:34;;;;;;;12.98;5.65;;;;;;;-6.35;69.88;101063.22;5008205;28;20069;-50
2024/02/16 01:46:00;;;;;;;15.00;6.45;;;;;;;-6.04;69.90;101095.34;5002320;28;20082;-55
2024/02/16 01:48:27;;;;;;;14.05;5.65;;;;;;;-5.87;69.65;101100.44;4988460;28;20046;-51
2024/02/16 01:50:54;;;;;;;9.02;3.67;;;;;;;-6.01;69.33;101100.56;4996894;28;20038;-55
2024/02/16 01:53:20;;;;;;;10.52;4.53;;;;;;;-6.15;69.41;101113.25;4989985;28;20050;-49
2024/02/16 01:55:46;;;;;;;13.10;4.50;;;;;;;-6.38;69.35;101106.91;4972265;28;20100;-54
2024/02/16 01:58:13;;;;;;;16.13;6.22;;;;;;;-6.77;69.60;101065.09;4988089;28;20050;-54
2024/02/16 02:00:41;;;;;;;14.63;5.47;;;;;;;-6.58;70.73;101095.69;5003006;28;20042;-52
2024/02/16 02:03:07;;;;;;;13.73;5.68;;;;;;;-6.45;70.21;101103.19;4991214;28;20065;-52
2024/02/16 02:05:32;;;;;;;14.90;6.38;;;;;;;-6.35;70.19;101094.44;5006554;28;20175;-52
2024/02/16 02:07:58;;;;;;;16.42;6.68;;;;;;;-6.19;70.58;101096.16;4997268;28;20084;-53
2024/02/16 02:10:24;;;;;;;11.60;5.25;;;;;;;-6.17;70.12;101097.09;4998021;28;20041;-51
2024/02/16 02:12:50;;;;;;;18.15;6.38;;;;;;;-6.25;70.46;101100.88;5009314;28;20049;-50
2024/02/16 02:15:16;;;;;;;15.55;5.60;;;;;;;-6.24;70.61;101098.44;5008303;28;20038;-52
2024/02/16 02:17:42;;;;;;;14.57;6.15;;;;;;;-6.09;70.66;101101.81;4995790;28;20049;-50
2024/02/16 02:20:10;;;;;;;17.90;6.07;;;;;;;-6.01;70.71;101094.63;5004925;28;20041;-54
2024/02/16 02:22:39;;;;;;;13.40;5.47;;;;;;;-5.92;70.39;101096.78;5007196;28;20069;-50
2024/02/16 02:25:05;;;;;;;15.88;6.13;;;;;;;-5.96;70.30;101100.78;4996529;28;20475;-47
2024/02/16 02:27:31;;;;;;;14.55;6.35;;;;;;;-6.21;69.47;101064.81;4989472;28;20088;-53
2024/02/16 02:29:58;;;;;;;16.15;6.40;;;;;;;-6.13;70.06;101094.84;4999540;28;20046;-52
2024/02/16 02:32:24;;;;;;;15.73;6.20;;;;;;;-6.31;70.46;101091.28;5006765;28;20521;-53
2024/02/16 02:34:50;;;;;;;16.63;6.25;;;;;;;-6.29;70.40;101089.72;5008046;28;20115;-48
2024/02/16 02:37:15;;;;;;;15.05;7.15;;;;;;;-6.04;70.59;101089.41;5008617;28;20033;-55
2024/02/16 02:39:41;;;;;;;16.15;5.25;;;;;;;-5.83;70.28;101093.06;5000984;28;20042;-52
2024/02/16 02:42:08;;;;;;;14.50;5.85;;;;;;;-5.84;70.19;101091.31;5003496;28;20104;-52
2024/02/16 02:44:36;;;;;;;18.42;7.60;;;;;;;-5.77;70.52;101095.03;5004659;28;20053;-53
2024/02/16 02:47:02;;;;;;;19.52;6.25;;;;;;;-5.84;70.13;101101.44;4999661;28;20034;-50
2024/02/16 02:49:28;;;;;;;20.95;6.63;;;;;;;-5.68;70.31;101101.47;4995669;28;20042;-54
2024/02/16 02:51:54;;;;;;;22.35;9.32;;;;;;;-5.67;69.60;101104.88;5000028;28;20049;-51
2024/02/16 02:54:19;;;;;;;15.10;6.10;;;;;;;-5.89;70.22;101069.97;5005415;28;20768;-57
2024/02/16 02:56:45;;;;;;;16.73;6.45;;;;;;;-5.56;70.32;101109.72;4998039;28;20042;-54
2024/02/16 02:59:11;;;;;;;12.52;5.40;;;;;;;-5.44;69.97;101113.69;4999604;28;20529;-50
2024/02/16 03:01:37;;;;;;;18.70;6.57;;;;;;;-5.46;69.96;101111.06;4997235;28;20033;-56
2024/02/16 03:04:04;;;;;;;17.38;6.63;;;;;;;-5.31;70.03;101114.38;5007560;28;20141;-53
2024/02/16 03:06:29;;;;;;;13.50;6.30;;;;;;;-5.32;69.10;101107.56;5006522;28;20040;-49
2024/02/16 03:08:55;;;;;;;16.90;6.95;;;;;;;-5.30;69.52;101106.00;5007801;28;20049;-52
2024/02/16 03:11:21;;;;;;;15.15;6.13;;;;;;;-5.29;69.42;101110.28;5006927;28;20081;-53
2024/02/16 03:13:47;;;;;;;13.52;6.95;;;;;;;-5.24;68.86;101115.59;5006393;28;20050;-55
2024/02/16 03:16:14;;;;;;;14.98;6.30;;;;;;;-5.43;69.33;101074.88;5000886;28;20042;-48
2024/02/16 03:18:39;;;;;;;13.32;5.20;;;;;;;-5.44;68.84;101094.25;5006686;28;20042;-54
2024/02/16 03:21:05;;;;;;;13.98;6.10;;;;;;;-5.49;68.62;101098.22;4994690;28;20426;-55
2024/02/16 03:23:31;;;;;;;15.50;6.30;;;;;;;-5.31;68.86;101128.72;5001344;28;20064;-51
2024/02/16 03:25:57;;;;;;;15.25;6.35;;;;;;;-5.31;68.56;101131.25;4989834;28;20038;-50
2024/02/16 03:28:23;;;;;;;13.77;5.75;;;;;;;-5.28;68.90;101121.25;4994526;28;20548;-49
2024/02/16 03:30:49;;;;;;;13.00;5.78;;;;;;;-5.29;68.33;101130.56;4996128;28;20030;-50
2024/02/16 03:33:15;;;;;;;21.73;6.68;;;;;;;-5.34;68.63;101126.03;5001653;28;20044;-49
2024/02/16 03:35:40;;;;;;;17.45;6.85;;;;;;;-5.32;68.67;101137.97;5006051;28;20034;-51
2024/02/16 03:38:07;;;;;;;16.48;6.10;;;;;;;-5.36;68.42;101145.34;5006020;28;20045;-51
2024/02/16 03:40:34;;;;;;;18.42;6.95;;;;;;;-5.54;68.74;101097.09;4990093;28;20049;-55
2024/02/16 03:42:59;;;;;;;16.80;5.75;;;;;;;-5.37;67.83;101131.81;4990747;28;20037;-54
2024/02/16 03:45:28;;;;;;;17.73;6.93;;;;;;;-5.63;68.39;101110.16;4978033;28;20046;-55
2024/02/16 03:47:54;;;;;;;14.70;6.35;;;;;;;-5.47;68.41;101121.09;4995723;28;20473;-55
2024/02/16 03:50:20;;;;;;;17.30;6.70;;;;;;;-5.68;68.47;101071.06;4997090;28;20127;-52
2024/02/16 03:52:46;;;;;;;18.50;6.72;;;;;;;-5.44;68.68;101113.69;4998251;28;20042;-52
2024/02/16 03:55:12;;;;;;;15.88;6.78;;;;;;;-5.60;68.39;101114.53;4999803;28;20828;-52
2024/02/16 03:57:41;;;;;;;15.65;6.68;;;;;;;-5.71;68.35;101113.09;4985416;28;20576;-53
2024/02/16 04:00:08;;;;;;;19.23;6.53;;;;;;;-5.66;68.46;101110.03;4996946;28;20054;-54
2024/02/16 04:02:40;;;;;;;17.38;6.55;;;;;;;-5.74;68.08;101112.91;4979342;28;20042;-55
2024/02/16 04:05:07;;;;;;;16.13;6.47;;;;;;;-5.94;68.81;101076.44;4996279;28;20037;-52
2024/02/16 04:07:34;;;;;;;19.92;7.90;;;;;;;-5.62;68.76;101099.25;4984655;28;20060;-56
2024/02/16 04:10:00;;;;;;;14.32;5.80;;;;;;;-5.44;68.79;101106.94;5005116;28;20354;-56
2024/02/16 04:12:26;;;;;;;19.30;6.53;;;;;;;-5.49;68.63;101110.88;5006746;28;20522;-52
2024/02/16 04:14:52;;;;;;;17.67;6.47;;;;;;;-5.50;68.40;101109.16;5006935;28;20533;-53
2024/02/16 04:17:17;;;;;;;20.23;6.43;;;;;;;-5.45;69.04;101096.75;5006381;28;20080;-51
2024/02/16 04:19:43;;;;;;;17.15;7.22;;;;;;;-5.62;68.57;101066.31;4994881;28;20044;-52
2024/02/16 04:22:09;;;;;;;16.88;5.80;;;;;;;-5.45;68.59;101099.28;4985680;28;20038;-51
2024/02/16 04:24:35;;;;;;;15.57;6.32;;;;;;;-5.39;68.07;101100.44;5002232;28;20723;-53
2024/02/16 04:27:01;;;;;;;18.30;7.43;;;;;;;-5.40;68.97;101092.78;5006973;28;20348;-53
2024/02/16 04:29:26;;;;;;;17.58;6.88;;;;;;;-5.40;68.98;101097.84;4980528;28;20046;-53
2024/02/16 04:31:52;;;;;;;16.02;6.35;;;;;;;-5.69;68.62;101053.25;4998753;28;20038;-51
2024/02/16 04:34:18;;;;;;;16.20;6.70;;;;;;;-5.57;68.90;101090.22;5005795;28;20056;-52
2024/02/16 04:36:45;;;;;;;19.00;6.97;;;;;;;-5.48;68.32;101101.63;5006584;28;20042;-54
2024/02/16 04:39:12;;;;;;;19.00;7.95;;;;;;;-5.37;69.09;101103.94;4988419;28;20082;-53
2024/02/16 04:41:38;;;;;;;22.48;7.32;;;;;;;-5.45;69.01;101066.34;5005593;28;20041;-53
2024/02/16 04:44:04;;;;;;;21.70;9.38;;;;;;;-5.26;68.76;101101.94;4972252;28;20584;-56
2024/02/16 04:46:29;;;;;;;17.38;6.80;;;;;;;-5.27;68.41;101101.06;5004710;28;20050;-53
2024/02/16 04:48:55;;;;;;;24.13;7.97;;;;;;;-5.26;68.77;101085.09;5003741;28;20474;-52
2024/02/16 04:51:21;;;;;;;19.30;7.80;;;;;;;-5.39;68.58;101054.81;4988346;28;20046;-54
2024/02/16 04:53:48;;;;;;;18.42;7.25;;;;;;;-5.38;68.35;101091.16;5006148;28;20477;-53
2024/02/16 04:56:13;;;;;;;20.20;8.10;;;;;;;-5.39;69.02;101084.38;5007509;28;20076;-53
2024/02/16 04:58:41;;;;;;;21.00;8.50;;;;;;;-5.45;68.58;101064.66;5000604;28;20049;-53
2024/02/16 05:01:07;;;;;;;23.92;7.97;;;;;;;-5.42;68.73;101042.00;4990388;28;20042;-55
2024/02/16 05:03:33;;;;;;;24.98;8.48;;;;;;;-5.19;68.54;101083.75;4973012;28;20048;-54
2024/02/16 05:06:02;;;;;;;16.25;7.18;;;;;;;-5.26;67.92;101079.13;5005342;28;20391;-54
2024/02/16 05:08:28;;;;;;;21.00;7.53;;;;;;;-5.30;67.98;101090.78;5008043;28;20041;-51
2024/02/16 05:10:54;;;;;;;18.38;7.82;;;;;;;-5.61;68.20;101041.88;5009616;28;20603;-57
2024/02/16 05:13:20;;;;;;;23.52;8.02;;;;;;;-5.50;68.40;101080.44;5009236;28;20123;-55
2024/02/16 05:15:48;;;;;;;18.55;7.97;;;;;;;-5.53;68.88;101083.66;5008314;28;20104;-54
2024/02/16 05:18:14;;;;;;;21.52;7.55;;;;;;;-5.68;68.45;101035.59;4995908;28;20157;-56
2024/02/16 05:20:40;;;;;;;21.48;7.18;;;;;;;-5.43;68.73;101085.88;5007969;28;20255;-52
2024/02/16 05:23:06;;;;;;;19.05;7.55;;;;;;;-5.55;69.20;101054.84;5007484;28;20533;-54
2024/02/16 05:25:32;;;;;;;18.50;7.47;;;;;;;-5.55;68.46;101087.78;4991646;28;20080;-51
2024/02/16 05:27:59;;;;;;;22.35;7.05;;;;;;;-5.66;68.94;101096.47;4987405;28;20109;-52
2024/02/16 05:30:25;;;;;;;17.25;8.18;;;;;;;-5.56;69.03;101107.19;4989746;28;20057;-57
2024/02/16 05:32:53;;;;;;;18.55;6.95;;;;;;;-5.45;69.17;101096.75;4990588;28;20080;-54
2024/02/16 05:35:19;;;;;;;16.88;5.95;;;;;;;-5.41;69.00;101111.28;4991081;28;20521;-56
2024/02/16 05:37:51;;;;;;;16.58;6.50;;;;;;;-5.46;69.00;101116.13;5000541;28;20046;-56
2024/02/16 05:40:28;;;;;;;18.77;7.90;;;;;;;-5.34;68.74;101128.56;4997276;28;20042;-57
2024/02/16 05:42:58;;;;;;;25.35;7.65;;;;;;;-5.40;68.29;101121.53;5006118;28;20052;-57
2024/02/16 05:45:26;;;;;;;21.60;7.82;;;;;;;-5.20;68.82;101146.25;4994365;28;20046;-52
2024/02/16 05:47:52;;;;;;;17.67;6.88;;;;;;;-5.34;68.13;101142.09;4980478;28;20081;-52
2024/02/16 05:50:20;;;;;;;20.23;6.15;;;;;;;-5.48;68.43;101132.03;4995542;28;20042;-56
2024/02/16 05:52:46;;;;;;;18.70;5.95;;;;;;;-5.69;68.25;101142.78;4996066;28;20046;-53
2024/02/16 05:55:18;;;;;;;20.20;7.03;;;;;;;-5.85;68.84;101139.31;5001221;28;20072;-55
2024/02/16 05:57:44;;;;;;;17.30;6.82;;;;;;;-6.14;68.38;101097.28;4996025;28;20050;-54
2024/02/16 06:00:10;;;;;;;12.98;5.30;;;;;;;-5.92;69.12;101134.78;4981366;28;20412;-53
2024/02/16 06:02:37;;;;;;;20.13;6.20;;;;;;;-6.32;69.20;101076.00;5000039;28;20054;-53
2024/02/16 06:05:04;;;;;;;20.67;7.63;;;;;;;-6.02;68.86;101126.66;5002120;28;20891;-53
2024/02/16 06:07:30;;;;;;;22.73;7.22;;;;;;;-5.89;69.45;101130.72;4996996;28;20090;-52
2024/02/16 06:09:57;;;;;;;16.35;6.75;;;;;;;-5.87;68.71;101133.34;4968915;28;20048;-56
2024/02/16 06:12:23;;;;;;;17.75;6.68;;;;;;;-5.90;68.87;101128.09;5001310;28;20053;-56
2024/02/16 06:14:50;;;;;;;15.63;6.97;;;;;;;-5.95;69.37;101137.13;4984531;28;20042;-52
2024/02/16 06:17:16;;;;;;;19.35;7.03;;;;;;;-5.94;68.88;101127.09;4970699;28;20042;-54
2024/02/16 06:19:43;;;;;;;20.58;7.93;;;;;;;-5.65;69.34;101139.59;4993167;28;20894;-56
2024/02/16 06:22:09;;;;;;;15.45;6.95;;;;;;;-5.69;68.44;101107.31;4964814;28;20104;-54
2024/02/16 06:24:36;;;;;;;16.20;7.13;;;;;;;-5.36;68.38;101147.88;4984682;28;20348;-54
2024/02/16 06:27:03;;;;;;;17.33;6.93;;;;;;;-5.29;68.49;101145.78;5001890;28;20105;-56
2024/02/16 06:29:32;;;;;;;14.88;5.85;;;;;;;-5.25;68.37;101152.72;4987267;28;20050;-57
2024/02/16 06:31:58;;;;;;;16.25;6.78;;;;;;;-5.07;68.33;101152.78;5001965;28;20030;-54
2024/02/16 06:34:24;;;;;;;17.83;6.25;;;;;;;-5.15;68.02;101100.84;4990886;28;20502;-58
2024/02/16 06:36:50;;;;;;;17.20;6.57;;;;;;;-4.78;68.38;101141.59;4984274;28;20076;-54
2024/02/16 06:39:18;;;;;;;15.15;6.40;;;;;;;-4.68;67.73;101138.72;4993228;28;20045;-54
2024/02/16 06:41:47;;;;;;;18.52;6.13;;;;;;;-4.62;67.38;101141.56;4999148;28;20153;-56
2024/02/16 06:44:14;;;;;;;23.95;7.65;;;;;;;-4.58;67.62;101137.50;4991531;28;20065;-53
2024/02/16 06:46:40;;;;;;;17.30;6.35;;;;;;;-4.50;67.25;101134.53;4999806;28;20045;-56
2024/02/16 06:49:06;;;;;;;15.57;5.85;;;;;;;-4.79;67.08;101147.47;4996986;28;20056;-53
2024/02/16 06:51:32;;;;;;;15.20;7.10;;;;;;;-5.00;66.88;101131.16;4999122;28;20038;-55
2024/02/16 06:53:58;;;;;;;16.60;6.65;;;;;;;-4.96;66.72;101118.72;4999904;28;20133;-53
2024/02/16 06:56:24;;;;;;;15.55;6.47;;;;;;;-4.93;66.92;101095.19;4981284;28;20088;-51
2024/02/16 06:58:49;;;;;;;16.15;5.72;;;;;;;-4.87;66.65;101131.88;4988050;28;20054;-51
2024/02/16 07:01:17;;;;;;;12.27;6.22;;;;;;;-4.98;66.37;101130.47;4998761;28;20038;-55
2024/02/16 07:03:43;;;;;;;14.35;6.30;;;;;;;-4.95;66.75;101127.19;5005335;28;20076;-52
2024/02/16 07:06:10;;;;;;;17.55;6.55;;;;;;;-4.82;66.41;101121.97;5001423;28;20038;-51
2024/02/16 07:08:44;;;;;;;31.77;10.00;;;;;;;-4.54;66.82;101132.66;4997528;28;20038;-56
2024/02/16 07:11:13;;;;;;;23.13;6.95;;;;;;;-4.28;66.68;101121.22;4998972;28;20098;-54
2024/02/16 07:13:40;;;;;;;17.05;6.43;;;;;;;-4.15;66.30;101128.66;4993895;28;20061;-53
2024/02/16 07:16:06;;;;;;;16.58;6.85;;;;;;;-4.05;66.02;101120.66;4964818;28;20038;-53
2024/02/16 07:18:33;;;;;;;18.17;6.90;;;;;;;-4.23;65.94;101084.22;4966868;28;20133;-51
2024/02/16 07:20:59;;;;;;;19.75;6.40;;;;;;;-3.94;65.82;101116.09;4988543;28;20536;-53
2024/02/16 07:23:25;;;;;;;13.63;5.60;;;;;;;-4.00;65.28;101123.41;4996043;28;20057;-55
2024/02/16 07:25:55;;;;;;;15.27;5.70;;;;;;;-4.13;64.75;101121.09;4995692;28;20045;-57
2024/02/16 07:28:21;;;;;;;18.65;6.78;;;;;;;-4.29;64.71;101120.34;5003752;28;20281;-54
2024/02/16 07:30:48;;;;;;;14.65;6.43;;;;;;;-4.40;65.07;101116.47;4996921;28;20173;-53
2024/02/16 07:33:14;;;;;;;20.85;6.82;;;;;;;-4.18;65.12;101125.06;4990707;28;20045;-54
2024/02/16 07:35:42;;;;;;;21.45;7.32;;;;;;;-4.36;64.69;101089.53;5007480;28;20510;-57
2024/02/16 07:38:08;;;;;;;19.40;6.90;;;;;;;-4.19;64.70;101133.50;5005440;28;20057;-55
2024/02/16 07:40:34;;;;;;;21.92;8.48;;;;;;;-4.26;64.31;101094.25;5005826;28;20623;-53
2024/02/16 07:43:00;;;;;;;15.05;7.30;;;;;;;-4.03;64.14;101130.91;5001072;28;20050;-55
2024/02/16 07:45:27;;;;;;;24.45;7.70;;;;;;;-4.05;64.64;101130.81;4975846;28;20037;-56
2024/02/16 07:47:54;;;;;;;17.70;6.97;;;;;;;-3.86;64.36;101133.41;4993441;28;20046;-53
2024/02/16 07:50:21;;;;;;;16.08;6.20;;;;;;;-3.97;63.35;101137.13;4960912;28;20044;-57
2024/02/16 07:52:48;;;;;;;20.17;7.45;;;;;;;-3.94;63.40;101141.50;4993254;28;20608;-52
2024/02/16 07:55:17;;;;;;;21.55;6.93;;;;;;;-4.02;63.61;101135.16;4973178;28;20056;-56
2024/02/16 07:57:44;;;;;;;19.77;6.57;;;;;;;-4.02;63.81;101136.03;4992626;28;20046;-52
2024/02/16 08:00:18;;;;;;;19.90;8.43;;;;;;;-4.09;63.66;101108.63;4981836;28;20297;-51
2024/02/16 08:02:45;;;;;;;15.90;6.35;;;;;;;-3.78;64.09;101143.94;4978487;28;20076;-53
2024/02/16 08:05:12;;;;;;;13.85;7.22;;;;;;;-3.59;64.34;101153.28;4992750;28;20821;-50
2024/02/16 08:07:42;;;;;;;17.05;6.88;;;;;;;-3.62;63.63;101138.78;4980359;28;20041;-53
2024/02/16 08:10:09;;;;;;;20.27;6.75;;;;;;;-3.66;63.43;101141.06;5003560;28;20076;-52
2024/02/16 08:12:36;;;;;;;18.20;6.95;;;;;;;-3.74;63.49;101134.78;4994901;28;20041;-50
2024/02/16 08:15:07;;;;;;;14.52;6.45;;;;;;;-3.69;63.44;101148.56;4977748;28;20042;-52
2024/02/16 08:17:34;;;;;;;21.02;6.75;;;;;;;-3.63;63.64;101147.19;4985692;28;20042;-52
2024/02/16 08:20:00;;;;;;;16.67;6.75;;;;;;;-3.61;63.64;101143.03;5002410;28;20041;-57
2024/02/16 08:22:27;;;;;;;23.48;7.97;;;;;;;-3.58;63.62;101144.84;4999436;28;20034;-57
2024/02/16 08:24:56;;;;;;;22.67;8.35;;;;;;;-3.49;63.39;101145.25;4989170;28;20081;-53
2024/02/16 08:27:22;;;;;;;16.83;7.75;;;;;;;-3.60;63.37;101139.69;5000715;28;20051;-54
2024/02/16 08:29:48;;;;;;;19.73;8.23;;;;;;;-3.52;63.54;101133.31;4975254;28;20050;-54
2024/02/16 08:32:16;;;;;;;19.63;7.45;;;;;;;-3.22;63.32;101131.25;4994926;28;20042;-57
2024/02/16 08:34:42;;;;;;;18.73;8.68;;;;;;;-2.97;63.15;101124.66;4994074;28;20078;-56
2024/02/16 08:37:09;;;;;;;17.50;7.40;;;;;;;-2.83;63.07;101121.06;4976772;28;20128;-53
2024/02/16 08:39:38;;;;;;;18.27;7.05;;;;;;;-2.98;62.71;101103.44;4995276;28;20042;-49
2024/02/16 08:42:04;;;;;;;20.00;7.53;;;;;;;-2.92;62.54;101128.28;4974425;28;20038;-55
2024/02/16 08:44:30;;;;;;;22.23;8.57;;;;;;;-3.18;62.25;101132.22;4957862;28;20069;-53
2024/02/16 08:46:57;;;;;;;20.10;8.15;;;;;;;-3.12;63.15;101146.09;5001423;28;20797;-51
2024/02/16 08:49:23;;;;;;;21.02;7.72;;;;;;;-3.01;62.74;101142.34;4993114;28;20138;-55
2024/02/16 08:51:49;;;;;;;20.27;7.88;;;;;;;-3.03;62.56;101153.25;4992168;28;20038;-50
2024/02/16 08:54:18;;;;;;;24.80;8.57;;;;;;;-3.01;62.62;101142.34;4995169;28;20042;-52
2024/02/16 08:56:45;;;;;;;25.42;8.95;;;;;;;-2.92;62.47;101152.03;4945462;28;20085;-54
2024/02/16 08:59:12;;;;;;;19.50;7.80;;;;;;;-3.32;62.09;101157.06;4972027;28;20069;-54
2024/02/16 09:01:41;;;;;;;25.05;7.82;;;;;;;-3.47;62.53;101148.75;5004931;28;20045;-53
2024/02/16 09:04:07;;;;;;;19.13;7.15;;;;;;;-3.56;61.88;101161.91;4985674;28;20108;-45
2024/02/16 09:06:36;;;;;;;20.42;7.47;;;;;;;-3.81;62.13;101125.13;4997999;28;20050;-55
2024/02/16 09:09:04;;;;;;;21.73;8.43;;;;;;;-3.79;62.79;101149.81;5003788;28;20096;-53
2024/02/16 09:11:30;;;;;;;21.98;7.95;;;;;;;-3.62;62.62;101154.03;4993449;28;20301;-54
2024/02/16 09:13:56;;;;;;;19.33;8.20;;;;;;;-3.85;62.56;101121.59;4994285;28;20137;-53
2024/02/16 09:16:22;;;;;;;19.48;7.95;;;;;;;-3.81;62.24;101151.41;4995730;28;20050;-54
2024/02/16 09:18:48;;;;;;;24.58;8.15;;;;;;;-3.81;62.32;101142.91;4992298;28;20046;-53
2024/02/16 09:21:14;;;;;;;18.23;6.95;;;;;;;-3.64;62.57;101140.34;4966265;28;20045;-57
2024/02/16 09:23:40;;;;;;;15.02;7.10;;;;;;;-3.64;61.96;101147.09;4998258;28;20042;-57
2024/02/16 09:26:09;;;;;;;16.33;7.55;;;;;;;-3.61;62.32;101129.47;4991044;28;20133;-53
2024/02/16 09:28:41;;;;;;;17.13;7.55;;;;;;;-3.50;62.34;101126.59;4993908;28;20048;-54
2024/02/16 09:31:11;;;;;;;20.05;8.02;;;;;;;-3.64;62.13;101087.00;4992230;28;20040;-56
2024/02/16 09:33:39;;;;;;;15.52;7.30;;;;;;;-3.44;62.23;101120.91;4998772;28;20050;-56
2024/02/16 09:36:05;;;;;;;20.08;8.80;;;;;;;-3.47;62.01;101115.72;4977374;28;20034;-54
2024/02/16 09:38:31;;;;;;;21.77;9.27;;;;;;;-3.49;61.92;101120.72;4998899;28;20895;-54
2024/02/16 09:40:57;;;;;;;22.75;8.13;;;;;;;-3.32;62.09;101126.56;4997498;28;20041;-52
2024/02/16 09:43:27;;;;;;;22.90;7.78;;;;;;;-3.48;61.88;101121.59;5002400;28;20077;-54
2024/02/16 09:45:58;;;;;;;21.95;8.68;;;;;;;-3.44;62.52;101111.63;5000332;28;20034;-57
2024/02/16 09:48:26;;;;;;;26.38;8.55;;;;;;;-3.42;62.04;101115.13;4993671;28;20073;-53
2024/02/16 09:50:56;;;;;;;21.85;8.05;;;;;;;-3.26;62.35;101092.91;5001250;28;20045;-56
2024/02/16 09:53:26;;;;;;;23.60;9.00;;;;;;;-3.06;62.32;101109.88;5001782;28;20053;-53
2024/02/16 09:55:52;;;;;;;19.67;8.20;;;;;;;-3.04;62.41;101091.34;4995933;28;20050;-56
2024/02/16 09:58:18;;;;;;;13.63;6.53;;;;;;;-3.07;62.35;101058.13;5000234;28;20083;-53
2024/02/16 10:00:55;;;;;;;22.60;8.43;;;;;;;-3.32;62.03;101087.53;4993490;28;20038;-49
2024/02/16 10:03:25;;;;;;;23.00;8.88;;;;;;;-3.10;62.44;101097.84;4961171;28;20115;-56
2024/02/16 10:05:55;;;;;;;19.73;8.70;;;;;;;-2.98;62.69;101098.34;4990657;28;20049;-52
2024/02/16 10:08:21;;;;;;;20.08;8.63;;;;;;;-3.10;62.22;101093.63;5006659;28;20044;-50
2024/02/16 10:10:48;;;;;;;20.45;9.50;;;;;;;-3.09;62.25;101094.50;5000997;28;20364;-55
2024/02/16 10:13:15;;;;;;;22.50;9.40;;;;;;;-2.98;62.39;101100.06;5005055;28;20038;-56
2024/02/16 10:15:41;;;;;;;22.42;9.25;;;;;;;-2.83;62.07;101075.25;4996645;28;20407;-56
2024/02/16 10:18:07;;;;;;;25.25;9.60;;;;;;;-2.60;61.68;101074.50;5003663;28;20048;-51
2024/02/16 10:20:34;;;;;;;20.80;8.88;;;;;;;-2.67;61.61;101086.09;5000556;28;20041;-55
2024/02/16 10:23:07;;;;;;;23.08;9.75;;;;;;;-2.69;61.40;101095.38;4994210;28;20046;-49
2024/02/16 10:25:43;;;;;;;20.88;8.30;;;;;;;-2.46;61.60;101085.25;4995046;28;20592;-56
2024/02/16 10:28:11;;;;;;;22.52;8.90;;;;;;;-2.73;61.25;101054.47;4971375;28;20042;-53
2024/02/16 10:30:38;;;;;;;22.98;9.00;;;;;;;-2.56;61.58;101077.22;4971316;28;20030;-50
2024/02/16 10:33:06;;;;;;;24.90;9.60;;;;;;;-2.37;61.53;101081.41;4987496;28;20080;-55
2024/02/16 10:35:33;;;;;;;24.75;9.70;;;;;;;-2.18;61.38;101082.97;5007389;28;20111;-53
2024/02/16 10:38:04;;;;;;;22.27;8.85;;;;;;;-2.09;61.15;101083.31;4980290;28;20120;-55
2024/02/16 10:40:32;;;;;;;23.25;9.40;;;;;;;-2.03;61.24;101082.69;4991878;28;20050;-54
2024/02/16 10:43:03;;;;;;;22.17;9.63;;;;;;;-1.96;61.20;101079.56;4994170;28;20046;-57
2024/02/16 10:45:31;;;;;;;31.15;11.23;;;;;;;-2.10;61.19;101042.53;4981226;28;20465;-55
2024/02/16 10:47:57;;;;;;;22.73;9.90;;;;;;;-1.97;60.61;101081.25;4991150;28;20490;-63
2024/02/16 10:50:23;;;;;;;25.75;10.63;;;;;;;-2.11;60.58;101084.09;5000475;28;20038;-59
2024/02/16 10:52:49;;;;;;;22.58;9.00;;;;;;;-2.24;60.73;101047.06;4978709;28;20041;-50
2024/02/16 10:55:15;;;;;;;21.73;9.60;;;;;;;-1.95;60.52;101091.50;4993590;28;20046;-53
2024/02/16 10:57:41;;;;;;;22.67;10.05;;;;;;;-1.84;60.41;101088.56;4995075;28;20101;-53
2024/02/16 11:00:11;;;;;;;18.23;8.93;;;;;;;-1.99;60.33;101043.81;4995511;28;20038;-57
2024/02/16 11:03:01;;;;;;;22.55;9.05;;;;;;;-1.60;60.57;101093.69;4996157;28;20586;-52
2024/02/16 11:05:45;;;;;;;21.45;9.20;;;;;;;-1.81;59.83;101092.91;4983802;28;20099;-55
2024/02/16 11:08:16;;;;;;;24.00;8.85;;;;;;;-2.15;60.08;101068.66;4982326;28;20141;-57
2024/02/16 11:11:00;;;;;;;22.30;8.98;;;;;;;-1.96;59.53;101090.66;4992988;28;20136;-54
2024/02/16 11:13:28;;;;;;;24.58;9.10;;;;;;;-2.06;59.67;101093.66;4971786;28;20046;-50
2024/02/16 11:16:02;;;;;;;24.35;9.90;;;;;;;-2.17;59.71;101089.81;5005811;28;20037;-55